Aérodrome :
LOGIN :

S'inscrire | Disclaimer

   EN    FR    IT 

 










Légende :    VFR   VFR Marginal   IFR   IFR Intensif   IFR Très Intensif
Visi : 
Plafond : 
>= 8 km
>= 3000ft
5 à 8 km
1000 à 3000 ft
1500m à 5 km
500 à 1000 ft
800 à 1500m
200 à 500 ft
< 800m
< 200 ft
Symboles :   Orages  Brouillard  Fortes neiges  Fortes précipitations  Vent > 20 kt
SIGMETs :   Divers  Orages  Givrage  Turbulence  Onde Orograph.  Cendres Volcan.






- Altitude de l'aérodrome : 21 ft
- Code IATA : BJV


LTFE - Bodrum

DERNIER METAR :
  • 310750Z VRB03KT 9999 FEW035 BKN200 22/10 Q1016 NOSIG RMK RWY10 VRB02KT

METARs EXPIRÉS :
  • 310720Z 01003KT 280V050 9999 FEW035 BKN100 BKN200 20/11 Q1016 NOSIG RMK RWY10 VRB03KT
  • 310650Z VRB01KT 9999 FEW035 BKN100 BKN200 19/11 Q1016 NOSIG RMK RWY10 VRB01KT
  • 310620Z VRB02KT 9999 FEW035 BKN100 BKN200 17/11 Q1016 NOSIG RMK RWY10 VRB02KT
  • 310550Z 11004KT 070V130 9999 FEW035 BKN100 BKN200 16/12 Q1016 NOSIG RMK RWY10 08004KT 040V110
  • 310520Z 10002KT CAVOK 15/12 Q1017 NOSIG RMK RWY10 09003KT

TAF TAF LTFE
Valide du 31 à 06h jusqu'au 01 à 06h UTC


310440Z 3106/0106 VRB02KT CAVOK
BECMG 3107/3110 26012KT SCT035 BKN100
BECMG 3115/3117 VRB02KT



MET'MAP, la Météo Aéronautique d'un coup d'oeil ! - Copyright ORBIFLY Décembre 2007 - Disclaimer

ORBIFLY MET'MAP TEAM :

Programmation & Développement : Alexandra Zaïnal
Sur une idée originale de : Baudouin d'Aumeries
Assistance à la programmation : Marc-Olivier Méhu
Soutien technique & logistique : Manuel Goepfert

Contact : metmap@orbifly.com




SOURCES & CREDITS :

   NOAA